sensor_id;sensor_type;location;lat;lon;timestamp;pressure;altitude;pressure_sealevel;temperature;humidity
63399;BME280;49533;-34.520;150.798;2023-03-03T00:00:48;100726.72;;;22.48;65.72
63399;BME280;49533;-34.520;150.798;2023-03-03T00:03:19;100747.72;;;22.53;65.93
63399;BME280;49533;-34.520;150.798;2023-03-03T00:05:46;100741.41;;;22.52;65.97
63399;BME280;49533;-34.520;150.798;2023-03-03T00:08:13;100740.63;;;22.55;65.64
63399;BME280;49533;-34.520;150.798;2023-03-03T00:10:40;100736.25;;;22.54;65.62
63399;BME280;49533;-34.520;150.798;2023-03-03T00:13:15;100738.63;;;22.56;65.58
63399;BME280;49533;-34.520;150.798;2023-03-03T00:15:43;100734.66;;;22.53;65.93
63399;BME280;49533;-34.520;150.798;2023-03-03T00:18:21;100739.00;;;22.54;65.77
63399;BME280;49533;-34.520;150.798;2023-03-03T00:20:52;100736.25;;;22.54;65.91
63399;BME280;49533;-34.520;150.798;2023-03-03T00:23:29;100744.97;;;22.56;65.76
63399;BME280;49533;-34.520;150.798;2023-03-03T00:25:58;100745.00;;;22.60;66.07
63399;BME280;49533;-34.520;150.798;2023-03-03T00:28:31;100737.06;;;22.58;66.02
63399;BME280;49533;-34.520;150.798;2023-03-03T00:31:16;100745.00;;;22.60;66.04
63399;BME280;49533;-34.520;150.798;2023-03-03T00:33:50;100748.56;;;22.61;65.86
63399;BME280;49533;-34.520;150.798;2023-03-03T00:36:35;100750.94;;;22.62;65.96
63399;BME280;49533;-34.520;150.798;2023-03-03T00:39:25;100750.94;;;22.62;65.91
63399;BME280;49533;-34.520;150.798;2023-03-03T00:41:53;100751.75;;;22.63;65.73
63399;BME280;49533;-34.520;150.798;2023-03-03T00:44:38;100756.81;;;22.53;66.21
63399;BME280;49533;-34.520;150.798;2023-03-03T00:47:23;100755.63;;;22.54;66.15
63399;BME280;49533;-34.520;150.798;2023-03-03T00:49:53;100750.50;;;22.56;65.84
63399;BME280;49533;-34.520;150.798;2023-03-03T00:52:21;100754.91;;;22.61;66.15
63399;BME280;49533;-34.520;150.798;2023-03-03T00:54:49;100749.34;;;22.57;66.05
63399;BME280;49533;-34.520;150.798;2023-03-03T00:57:17;100749.34;;;22.57;66.04
63399;BME280;49533;-34.520;150.798;2023-03-03T00:59:45;100751.72;;;22.59;65.98
63399;BME280;49533;-34.520;150.798;2023-03-03T01:02:12;100737.41;;;22.50;65.71
63399;BME280;49533;-34.520;150.798;2023-03-03T01:04:39;100750.16;;;22.62;65.79
63399;BME280;49533;-34.520;150.798;2023-03-03T01:07:07;100745.03;;;22.64;65.71
63399;BME280;49533;-34.520;150.798;2023-03-03T01:09:34;100739.88;;;22.62;65.92
63399;BME280;49533;-34.520;150.798;2023-03-03T01:12:01;100739.88;;;22.62;65.87
63399;BME280;49533;-34.520;150.798;2023-03-03T01:14:28;100739.06;;;22.62;65.80
63399;BME280;49533;-34.520;150.798;2023-03-03T01:16:55;100734.31;;;22.58;65.84
63399;BME280;49533;-34.520;150.798;2023-03-03T01:19:23;100738.66;;;22.60;65.82
63399;BME280;49533;-34.520;150.798;2023-03-03T01:21:50;100738.28;;;22.61;65.92
63399;BME280;49533;-34.520;150.798;2023-03-03T01:24:17;100732.72;;;22.57;65.77
63399;BME280;49533;-34.520;150.798;2023-03-03T01:26:44;100740.63;;;22.59;65.72
63399;BME280;49533;-34.520;150.798;2023-03-03T01:29:12;100739.06;;;22.58;65.81
63399;BME280;49533;-34.520;150.798;2023-03-03T01:31:39;100726.78;;;22.59;65.91
63399;BME280;49533;-34.520;150.798;2023-03-03T01:34:06;100737.50;;;22.61;65.86
63399;BME280;49533;-34.520;150.798;2023-03-03T01:36:33;100744.56;;;22.54;65.37
63399;BME280;49533;-34.520;150.798;2023-03-03T01:39:02;100742.81;;;22.32;66.12
63399;BME280;49533;-34.520;150.798;2023-03-03T01:41:30;100732.34;;;22.18;66.03
63399;BME280;49533;-34.520;150.798;2023-03-03T01:43:59;100729.91;;;22.09;66.48
63399;BME280;49533;-34.520;150.798;2023-03-03T01:46:39;100736.56;;;22.01;66.90
63399;BME280;49533;-34.520;150.798;2023-03-03T01:49:15;100728.28;;;22.05;67.12
63399;BME280;49533;-34.520;150.798;2023-03-03T01:51:51;100722.03;;;22.11;66.99
63399;BME280;49533;-34.520;150.798;2023-03-03T01:54:27;100731.66;;;22.25;66.82
63399;BME280;49533;-34.520;150.798;2023-03-03T01:57:00;100730.97;;;22.35;66.16
63399;BME280;49533;-34.520;150.798;2023-03-03T01:59:33;100720.69;;;22.39;65.92
63399;BME280;49533;-34.520;150.798;2023-03-03T02:02:01;100723.09;;;22.44;66.04
63399;BME280;49533;-34.520;150.798;2023-03-03T02:04:29;100722.75;;;22.49;66.06
63399;BME280;49533;-34.520;150.798;2023-03-03T02:07:00;100718.44;;;22.52;65.64
63399;BME280;49533;-34.520;150.798;2023-03-03T02:09:40;100723.97;;;22.52;65.48
63399;BME280;49533;-34.520;150.798;2023-03-03T02:12:12;100721.59;;;22.54;65.71
63399;BME280;49533;-34.520;150.798;2023-03-03T02:14:42;100707.69;;;22.47;65.64
63399;BME280;49533;-34.520;150.798;2023-03-03T02:17:09;100716.13;;;22.57;65.54
63399;BME280;49533;-34.520;150.798;2023-03-03T02:19:53;100715.34;;;22.61;65.37
63399;BME280;49533;-34.520;150.798;2023-03-03T02:22:36;100711.38;;;22.58;65.70
63399;BME280;49533;-34.520;150.798;2023-03-03T02:25:12;100713.72;;;22.60;65.48
63399;BME280;49533;-34.520;150.798;2023-03-03T02:27:41;100709.00;;;22.60;65.66
63399;BME280;49533;-34.520;150.798;2023-03-03T02:30:13;100709.81;;;22.61;65.63
63399;BME280;49533;-34.520;150.798;2023-03-03T02:32:40;100709.00;;;22.60;65.70
63399;BME280;49533;-34.520;150.798;2023-03-03T02:35:24;100716.13;;;22.61;65.71
63399;BME280;49533;-34.520;150.798;2023-03-03T02:37:51;100712.59;;;22.64;65.60
63399;BME280;49533;-34.520;150.798;2023-03-03T02:40:20;100709.03;;;22.64;65.66
63399;BME280;49533;-34.520;150.798;2023-03-03T02:42:52;100710.22;;;22.63;65.80
63399;BME280;49533;-34.520;150.798;2023-03-03T02:45:19;100711.00;;;22.63;65.70
63399;BME280;49533;-34.520;150.798;2023-03-03T02:47:50;100716.16;;;22.65;65.74
63399;BME280;49533;-34.520;150.798;2023-03-03T02:50:17;100719.34;;;22.67;65.59
63399;BME280;49533;-34.520;150.798;2023-03-03T02:52:45;100710.66;;;22.68;65.73
63399;BME280;49533;-34.520;150.798;2023-03-03T02:55:12;100716.97;;;22.69;65.71
63399;BME280;49533;-34.520;150.798;2023-03-03T02:57:39;100715.41;;;22.68;65.68
63399;BME280;49533;-34.520;150.798;2023-03-03T03:00:06;100717.75;;;22.69;65.72
63399;BME280;49533;-34.520;150.798;2023-03-03T03:02:34;100715.00;;;22.69;65.85
63399;BME280;49533;-34.520;150.798;2023-03-03T03:05:01;100710.28;;;22.73;65.97
63399;BME280;49533;-34.520;150.798;2023-03-03T03:07:28;100709.09;;;22.74;65.90
63399;BME280;49533;-34.520;150.798;2023-03-03T03:09:55;100707.13;;;22.75;66.04
63399;BME280;49533;-34.520;150.798;2023-03-03T03:12:22;100709.50;;;22.73;66.02
63399;BME280;49533;-34.520;150.798;2023-03-03T03:14:49;100707.09;;;22.71;65.88
63399;BME280;49533;-34.520;150.798;2023-03-03T03:17:16;100709.88;;;22.75;66.12
63399;BME280;49533;-34.520;150.798;2023-03-03T03:19:43;100710.66;;;22.72;65.84
63399;BME280;49533;-34.520;150.798;2023-03-03T03:22:10;100709.88;;;22.75;66.03
63399;BME280;49533;-34.520;150.798;2023-03-03T03:24:37;100707.94;;;22.75;65.89
63399;BME280;49533;-34.520;150.798;2023-03-03T03:27:05;100696.44;;;22.77;65.97
63399;BME280;49533;-34.520;150.798;2023-03-03T03:29:33;100698.06;;;22.78;65.96
63399;BME280;49533;-34.520;150.798;2023-03-03T03:32:00;100695.28;;;22.78;65.78
63399;BME280;49533;-34.520;150.798;2023-03-03T03:34:27;100693.31;;;22.78;66.06
63399;BME280;49533;-34.520;150.798;2023-03-03T03:36:54;100701.19;;;22.76;65.97
63399;BME280;49533;-34.520;150.798;2023-03-03T03:39:21;100698.06;;;22.78;65.96
63399;BME280;49533;-34.520;150.798;2023-03-03T03:41:48;100682.13;;;22.64;66.50
63399;BME280;49533;-34.520;150.798;2023-03-03T03:44:15;100695.13;;;22.53;67.23
63399;BME280;49533;-34.520;150.798;2023-03-03T03:46:42;100693.56;;;22.55;67.77
63399;BME280;49533;-34.520;150.798;2023-03-03T03:49:09;100703.06;;;22.62;67.25
63399;BME280;49533;-34.520;150.798;2023-03-03T03:51:37;100697.25;;;22.77;66.64
63399;BME280;49533;-34.520;150.798;2023-03-03T03:54:07;100691.78;;;22.88;66.47
63399;BME280;49533;-34.520;150.798;2023-03-03T03:56:34;100695.44;;;22.99;66.26
63399;BME280;49533;-34.520;150.798;2023-03-03T03:59:01;100695.06;;;23.08;65.93
63399;BME280;49533;-34.520;150.798;2023-03-03T04:01:28;100687.19;;;23.14;65.96
63399;BME280;49533;-34.520;150.798;2023-03-03T04:03:55;100691.97;;;23.17;65.85
63399;BME280;49533;-34.520;150.798;2023-03-03T04:06:22;100688.03;;;23.25;65.54
63399;BME280;49533;-34.520;150.798;2023-03-03T04:08:49;100680.50;;;23.22;65.71
63399;BME280;49533;-34.520;150.798;2023-03-03T04:11:17;100687.25;;;23.28;65.63
63399;BME280;49533;-34.520;150.798;2023-03-03T04:13:44;100681.31;;;23.33;65.64
63399;BME280;49533;-34.520;150.798;2023-03-03T04:16:11;100678.56;;;23.33;65.47
63399;BME280;49533;-34.520;150.798;2023-03-03T04:18:38;100683.72;;;23.38;65.52
63399;BME280;49533;-34.520;150.798;2023-03-03T04:21:05;100685.72;;;23.41;65.44
63399;BME280;49533;-34.520;150.798;2023-03-03T04:23:32;100686.13;;;23.43;65.49
63399;BME280;49533;-34.520;150.798;2023-03-03T04:26:02;100680.97;;;23.46;65.17
63399;BME280;49533;-34.520;150.798;2023-03-03T04:28:29;100682.56;;;23.47;65.11
63399;BME280;49533;-34.520;150.798;2023-03-03T04:30:56;100684.56;;;23.50;65.18
63399;BME280;49533;-34.520;150.798;2023-03-03T04:33:24;100684.16;;;23.51;64.96
63399;BME280;49533;-34.520;150.798;2023-03-03T04:35:51;100683.38;;;23.51;65.21
63399;BME280;49533;-34.520;150.798;2023-03-03T04:38:18;100676.63;;;23.52;64.92
63399;BME280;49533;-34.520;150.798;2023-03-03T04:40:45;100683.38;;;23.54;64.75
63399;BME280;49533;-34.520;150.798;2023-03-03T04:43:12;100682.63;;;23.57;64.93
63399;BME280;49533;-34.520;150.798;2023-03-03T04:45:40;100682.19;;;23.59;64.79
63399;BME280;49533;-34.520;150.798;2023-03-03T04:48:07;100681.00;;;23.56;65.02
63399;BME280;49533;-34.520;150.798;2023-03-03T04:50:34;100683.41;;;23.61;64.69
63399;BME280;49533;-34.520;150.798;2023-03-03T04:53:02;100668.34;;;23.59;64.66
63399;BME280;49533;-34.520;150.798;2023-03-03T04:55:29;100670.72;;;23.60;64.66
63399;BME280;49533;-34.520;150.798;2023-03-03T04:57:56;100675.06;;;23.61;64.69
63399;BME280;49533;-34.520;150.798;2023-03-03T05:00:23;100676.28;;;23.64;64.62
63399;BME280;49533;-34.520;150.798;2023-03-03T05:02:51;100667.13;;;23.56;64.56
63399;BME280;49533;-34.520;150.798;2023-03-03T05:05:18;100679.03;;;23.64;64.47
63399;BME280;49533;-34.520;150.798;2023-03-03T05:07:45;100674.69;;;23.63;64.44
63399;BME280;49533;-34.520;150.798;2023-03-03T05:10:12;100676.69;;;23.66;64.40
63399;BME280;49533;-34.520;150.798;2023-03-03T05:12:39;100674.69;;;23.66;64.38
63399;BME280;49533;-34.520;150.798;2023-03-03T05:15:07;100675.47;;;23.67;64.39
63399;BME280;49533;-34.520;150.798;2023-03-03T05:17:34;100674.31;;;23.68;64.48
63399;BME280;49533;-34.520;150.798;2023-03-03T05:20:02;100666.72;;;23.40;64.82
63399;BME280;49533;-34.520;150.798;2023-03-03T05:22:30;100664.66;;;23.19;65.33
63399;BME280;49533;-34.520;150.798;2023-03-03T05:24:58;100669.72;;;23.03;66.06
63399;BME280;49533;-34.520;150.798;2023-03-03T05:27:25;100674.47;;;22.98;66.22
63399;BME280;49533;-34.520;150.798;2023-03-03T05:29:52;100668.06;;;22.91;66.38
63399;BME280;49533;-34.520;150.798;2023-03-03T05:32:20;100668.03;;;22.87;66.63
63399;BME280;49533;-34.520;150.798;2023-03-03T05:34:47;100672.00;;;22.90;66.39
63399;BME280;49533;-34.520;150.798;2023-03-03T05:37:14;100680.66;;;22.81;66.74
63399;BME280;49533;-34.520;150.798;2023-03-03T05:39:41;100674.66;;;22.68;66.59
63399;BME280;49533;-34.520;150.798;2023-03-03T05:42:11;100682.94;;;22.68;67.16
63399;BME280;49533;-34.520;150.798;2023-03-03T05:44:39;100675.03;;;22.67;67.12
63399;BME280;49533;-34.520;150.798;2023-03-03T05:47:06;100675.00;;;22.63;66.77
63399;BME280;49533;-34.520;150.798;2023-03-03T05:49:33;100677.00;;;22.63;66.74
63399;BME280;49533;-34.520;150.798;2023-03-03T05:52:00;100671.81;;;22.57;67.37
63399;BME280;49533;-34.520;150.798;2023-03-03T05:54:28;100684.00;;;22.49;67.95
63399;BME280;49533;-34.520;150.798;2023-03-03T05:56:55;100678.00;;;22.40;68.13
63399;BME280;49533;-34.520;150.798;2023-03-03T05:59:23;100674.47;;;22.43;68.64
63399;BME280;49533;-34.520;150.798;2023-03-03T06:01:50;100682.41;;;22.48;68.59
63399;BME280;49533;-34.520;150.798;2023-03-03T06:04:17;100670.13;;;22.46;68.53
63399;BME280;49533;-34.520;150.798;2023-03-03T06:06:44;100678.47;;;22.49;68.31
63399;BME280;49533;-34.520;150.798;2023-03-03T06:09:11;100676.88;;;22.48;68.82
63399;BME280;49533;-34.520;150.798;2023-03-03T06:11:39;100681.59;;;22.44;69.15
63399;BME280;49533;-34.520;150.798;2023-03-03T06:14:06;100670.84;;;22.32;69.39
63399;BME280;49533;-34.520;150.798;2023-03-03T06:16:33;100683.50;;;22.33;69.55
63399;BME280;49533;-34.520;150.798;2023-03-03T06:19:00;100672.41;;;22.33;69.90
63399;BME280;49533;-34.520;150.798;2023-03-03T06:21:27;100677.88;;;22.22;71.05
63399;BME280;49533;-34.520;150.798;2023-03-03T06:23:54;100684.06;;;22.12;71.33
63399;BME280;49533;-34.520;150.798;2023-03-03T06:26:21;100679.34;;;22.16;71.16
63399;BME280;49533;-34.520;150.798;2023-03-03T06:28:49;100688.84;;;22.15;71.08
63399;BME280;49533;-34.520;150.798;2023-03-03T06:31:19;100676.91;;;22.04;71.99
63399;BME280;49533;-34.520;150.798;2023-03-03T06:33:47;100684.38;;;22.03;73.47
63399;BME280;49533;-34.520;150.798;2023-03-03T06:36:14;100674.81;;;21.93;74.60
63399;BME280;49533;-34.520;150.798;2023-03-03T06:38:41;100683.84;;;21.90;73.82
63399;BME280;49533;-34.520;150.798;2023-03-03T06:41:08;100668.44;;;21.86;73.86
63399;BME280;49533;-34.520;150.798;2023-03-03T06:43:36;100681.41;;;21.82;74.30
63399;BME280;49533;-34.520;150.798;2023-03-03T06:46:04;100688.91;;;21.81;73.87
63399;BME280;49533;-34.520;150.798;2023-03-03T06:48:32;100681.84;;;21.87;73.20
63399;BME280;49533;-34.520;150.798;2023-03-03T06:51:02;100684.25;;;21.89;73.56
63399;BME280;49533;-34.520;150.798;2023-03-03T06:53:31;100683.75;;;21.80;74.11
63399;BME280;49533;-34.520;150.798;2023-03-03T06:56:01;100669.06;;;21.72;74.53
63399;BME280;49533;-34.520;150.798;2023-03-03T06:58:28;100674.31;;;21.81;73.85
63399;BME280;49533;-34.520;150.798;2023-03-03T07:00:57;100680.56;;;21.78;74.16
63399;BME280;49533;-34.520;150.798;2023-03-03T07:03:29;100670.63;;;21.69;74.11
63399;BME280;49533;-34.520;150.798;2023-03-03T07:05:59;100676.25;;;21.80;73.63
63399;BME280;49533;-34.520;150.798;2023-03-03T07:08:30;100675.91;;;21.85;73.13
63399;BME280;49533;-34.520;150.798;2023-03-03T07:11:01;100671.53;;;21.81;72.62
63399;BME280;49533;-34.520;150.798;2023-03-03T07:13:36;100676.75;;;21.89;72.21
63399;BME280;49533;-34.520;150.798;2023-03-03T07:16:10;100683.50;;;21.96;71.81
63399;BME280;49533;-34.520;150.798;2023-03-03T07:18:54;100681.91;;;21.91;71.54
63399;BME280;49533;-34.520;150.798;2023-03-03T07:21:30;100683.41;;;21.85;71.62
63399;BME280;49533;-34.520;150.798;2023-03-03T07:24:07;100683.31;;;21.74;71.64
63399;BME280;49533;-34.520;150.798;2023-03-03T07:26:38;100667.44;;;21.67;71.00
63399;BME280;49533;-34.520;150.798;2023-03-03T07:29:24;100683.41;;;21.85;70.98
63399;BME280;49533;-34.520;150.798;2023-03-03T07:31:53;100675.97;;;21.89;71.00
63399;BME280;49533;-34.520;150.798;2023-03-03T07:34:29;100679.00;;;21.80;71.10
63399;BME280;49533;-34.520;150.798;2023-03-03T07:36:58;100678.66;;;21.82;70.92
63399;BME280;49533;-34.520;150.798;2023-03-03T07:39:34;100678.22;;;21.80;70.65
63399;BME280;49533;-34.520;150.798;2023-03-03T07:42:17;100692.94;;;21.87;70.83
63399;BME280;49533;-34.520;150.798;2023-03-03T07:44:46;100690.47;;;21.79;70.63
63399;BME280;49533;-34.520;150.798;2023-03-03T07:47:25;100690.84;;;21.77;70.50
63399;BME280;49533;-34.520;150.798;2023-03-03T07:49:55;100687.78;;;21.86;70.44
63399;BME280;49533;-34.520;150.798;2023-03-03T07:52:26;100685.03;;;21.86;70.16
63399;BME280;49533;-34.520;150.798;2023-03-03T07:54:56;100696.44;;;21.81;70.63
63399;BME280;49533;-34.520;150.798;2023-03-03T07:57:35;100689.72;;;21.85;69.94
63399;BME280;49533;-34.520;150.798;2023-03-03T08:03:14;100691.28;;;21.83;70.32
63399;BME280;49533;-34.520;150.798;2023-03-03T08:05:46;100692.44;;;21.78;70.17
63399;BME280;49533;-34.520;150.798;2023-03-03T08:08:29;100698.78;;;21.82;70.08
63399;BME280;49533;-34.520;150.798;2023-03-03T08:10:59;100706.31;;;21.82;70.19
63399;BME280;49533;-34.520;150.798;2023-03-03T08:13:37;100699.59;;;21.83;70.05
63399;BME280;49533;-34.520;150.798;2023-03-03T08:16:32;100698.78;;;21.82;70.20
63399;BME280;49533;-34.520;150.798;2023-03-03T08:19:02;100711.72;;;21.71;70.23
63399;BME280;49533;-34.520;150.798;2023-03-03T08:21:30;100704.19;;;21.68;70.22
63399;BME280;49533;-34.520;150.798;2023-03-03T08:23:59;100701.69;;;21.56;70.24
63399;BME280;49533;-34.520;150.798;2023-03-03T08:26:26;100722.06;;;21.78;70.22
63399;BME280;49533;-34.520;150.798;2023-03-03T08:28:54;100716.91;;;21.76;70.19
63399;BME280;49533;-34.520;150.798;2023-03-03T08:31:21;100724.75;;;21.70;70.53
63399;BME280;49533;-34.520;150.798;2023-03-03T08:33:48;100727.88;;;21.65;70.95
63399;BME280;49533;-34.520;150.798;2023-03-03T08:36:15;100734.97;;;21.66;70.94
63399;BME280;49533;-34.520;150.798;2023-03-03T08:38:43;100739.97;;;21.54;71.87
63399;BME280;49533;-34.520;150.798;2023-03-03T08:41:10;100734.66;;;21.41;74.04
63399;BME280;49533;-34.520;150.798;2023-03-03T08:43:37;100742.84;;;21.64;72.46
63399;BME280;49533;-34.520;150.798;2023-03-03T08:46:06;100745.44;;;21.84;71.55
63399;BME280;49533;-34.520;150.798;2023-03-03T08:48:35;100746.34;;;21.95;70.73
63399;BME280;49533;-34.520;150.798;2023-03-03T08:51:03;100751.59;;;22.04;70.48
63399;BME280;49533;-34.520;150.798;2023-03-03T08:53:30;100742.94;;;22.09;70.62
63399;BME280;49533;-34.520;150.798;2023-03-03T08:55:59;100752.03;;;22.09;70.44
63399;BME280;49533;-34.520;150.798;2023-03-03T08:58:26;100750.84;;;22.10;70.28
63399;BME280;49533;-34.520;150.798;2023-03-03T09:00:54;100762.38;;;22.16;70.04
63399;BME280;49533;-34.520;150.798;2023-03-03T09:03:21;100762.38;;;22.16;69.65
63399;BME280;49533;-34.520;150.798;2023-03-03T09:05:48;100760.47;;;22.20;69.69
63399;BME280;49533;-34.520;150.798;2023-03-03T09:08:15;100762.88;;;22.22;69.47
63399;BME280;49533;-34.520;150.798;2023-03-03T09:10:43;100763.25;;;22.24;69.39
63399;BME280;49533;-34.520;150.798;2023-03-03T09:13:14;100764.09;;;22.24;69.54
63399;BME280;49533;-34.520;150.798;2023-03-03T09:15:42;100764.09;;;22.24;69.63
63399;BME280;49533;-34.520;150.798;2023-03-03T09:18:17;100765.66;;;22.25;69.44
63399;BME280;49533;-34.520;150.798;2023-03-03T09:20:47;100766.44;;;22.26;69.20
63399;BME280;49533;-34.520;150.798;2023-03-03T09:23:30;100765.66;;;22.25;69.17
63399;BME280;49533;-34.520;150.798;2023-03-03T09:27:06;100766.44;;;22.26;69.73
63399;BME280;49533;-34.520;150.798;2023-03-03T09:29:10;100771.22;;;22.29;69.58
63399;BME280;49533;-34.520;150.798;2023-03-03T09:31:46;100783.47;;;22.28;69.60
63399;BME280;49533;-34.520;150.798;2023-03-03T09:34:22;100785.06;;;22.29;69.67
63399;BME280;49533;-34.520;150.798;2023-03-03T09:36:52;100782.28;;;22.29;68.94
63399;BME280;49533;-34.520;150.798;2023-03-03T09:39:22;100790.59;;;22.29;69.82
63399;BME280;49533;-34.520;150.798;2023-03-03T09:48:07;100792.16;;;22.26;69.57
63399;BME280;49533;-34.520;150.798;2023-03-03T09:51:01;100800.09;;;22.28;69.40
63399;BME280;49533;-34.520;150.798;2023-03-03T09:53:57;100805.19;;;22.26;69.54
63399;BME280;49533;-34.520;150.798;2023-03-03T09:56:34;100818.69;;;22.31;69.73
63399;BME280;49533;-34.520;150.798;2023-03-03T09:59:20;100817.47;;;22.28;69.33
63399;BME280;49533;-34.520;150.798;2023-03-03T10:05:06;100827.41;;;22.29;69.57
63399;BME280;49533;-34.520;150.798;2023-03-03T10:07:47;100812.69;;;22.22;69.26
63399;BME280;49533;-34.520;150.798;2023-03-03T10:10:47;100827.78;;;22.31;69.63
63399;BME280;49533;-34.520;150.798;2023-03-03T10:13:25;100816.28;;;22.26;69.61
63399;BME280;49533;-34.520;150.798;2023-03-03T10:16:29;100825.00;;;22.28;69.77
63399;BME280;49533;-34.520;150.798;2023-03-03T10:19:17;100821.38;;;22.24;69.86
63399;BME280;49533;-34.520;150.798;2023-03-03T10:21:52;100823.00;;;22.25;69.95
63399;BME280;49533;-34.520;150.798;2023-03-03T10:24:28;100832.88;;;22.26;69.72
63399;BME280;49533;-34.520;150.798;2023-03-03T10:27:18;100831.72;;;22.27;69.69
63399;BME280;49533;-34.520;150.798;2023-03-03T10:30:09;100837.63;;;22.25;69.57
63399;BME280;49533;-34.520;150.798;2023-03-03T10:32:53;100834.06;;;22.25;69.67
63399;BME280;49533;-34.520;150.798;2023-03-03T10:35:44;100837.63;;;22.25;69.80
63399;BME280;49533;-34.520;150.798;2023-03-03T10:38:25;100827.75;;;22.24;69.53
63399;BME280;49533;-34.520;150.798;2023-03-03T10:41:18;100834.84;;;22.25;69.66
63399;BME280;49533;-34.520;150.798;2023-03-03T10:47:08;100828.47;;;22.21;69.34
63399;BME280;49533;-34.520;150.798;2023-03-03T10:49:57;100833.63;;;22.23;69.58
63399;BME280;49533;-34.520;150.798;2023-03-03T10:52:37;100827.31;;;22.22;68.95
63399;BME280;49533;-34.520;150.798;2023-03-03T10:55:20;100837.59;;;22.22;69.53
63399;BME280;49533;-34.520;150.798;2023-03-03T11:01:15;100833.63;;;22.19;69.40
63399;BME280;49533;-34.520;150.798;2023-03-03T11:03:58;100827.22;;;22.19;69.01
63399;BME280;49533;-34.520;150.798;2023-03-03T11:06:42;100831.25;;;22.21;69.30
63399;BME280;49533;-34.520;150.798;2023-03-03T11:09:36;100824.47;;;22.19;68.96
63399;BME280;49533;-34.520;150.798;2023-03-03T11:12:14;100833.22;;;22.21;69.05
63399;BME280;49533;-34.520;150.798;2023-03-03T11:15:02;100835.19;;;22.20;68.77
63399;BME280;49533;-34.520;150.798;2023-03-03T11:20:51;100818.53;;;22.17;68.75
63399;BME280;49533;-34.520;150.798;2023-03-03T11:23:45;100815.34;;;22.14;68.57
63399;BME280;49533;-34.520;150.798;2023-03-03T11:29:28;100821.31;;;22.17;68.92
63399;BME280;49533;-34.520;150.798;2023-03-03T11:32:13;100820.13;;;22.18;69.20
63399;BME280;49533;-34.520;150.798;2023-03-03T11:34:59;100814.94;;;22.16;69.06
63399;BME280;49533;-34.520;150.798;2023-03-03T11:37:49;100796.69;;;22.08;68.85
63399;BME280;49533;-34.520;150.798;2023-03-03T11:40:25;100807.47;;;22.17;69.00
63399;BME280;49533;-34.520;150.798;2023-03-03T11:43:02;100795.97;;;22.14;69.27
63399;BME280;49533;-34.520;150.798;2023-03-03T11:45:41;100797.13;;;22.13;69.11
63399;BME280;49533;-34.520;150.798;2023-03-03T11:48:23;100797.94;;;22.14;69.04
63399;BME280;49533;-34.520;150.798;2023-03-03T11:51:05;100788.03;;;22.13;69.05
63399;BME280;49533;-34.520;150.798;2023-03-03T11:53:53;100781.25;;;22.07;69.17
63399;BME280;49533;-34.520;150.798;2023-03-03T11:56:26;100778.09;;;22.08;69.22
63399;BME280;49533;-34.520;150.798;2023-03-03T11:59:15;100781.25;;;22.07;69.11
63399;BME280;49533;-34.520;150.798;2023-03-03T12:01:55;100786.41;;;22.08;69.03
63399;BME280;49533;-34.520;150.798;2023-03-03T12:04:33;100795.53;;;22.09;69.08
63399;BME280;49533;-34.520;150.798;2023-03-03T12:07:29;100788.00;;;22.09;68.95
63399;BME280;49533;-34.520;150.798;2023-03-03T12:10:26;100793.91;;;22.08;68.87
63399;BME280;49533;-34.520;150.798;2023-03-03T12:13:10;100787.94;;;22.02;68.90
63399;BME280;49533;-34.520;150.798;2023-03-03T12:15:54;100791.13;;;22.04;69.22
63399;BME280;49533;-34.520;150.798;2023-03-03T12:18:35;100785.94;;;22.03;68.91
63399;BME280;49533;-34.520;150.798;2023-03-03T12:27:21;100785.59;;;22.04;68.83
63399;BME280;49533;-34.520;150.798;2023-03-03T12:30:17;100780.41;;;22.03;68.61
63399;BME280;49533;-34.520;150.798;2023-03-03T12:33:10;100778.44;;;22.03;68.78
63399;BME280;49533;-34.520;150.798;2023-03-03T12:35:53;100772.50;;;22.01;68.53
63399;BME280;49533;-34.520;150.798;2023-03-03T12:38:42;100768.94;;;22.01;68.47
63399;BME280;49533;-34.520;150.798;2023-03-03T12:41:29;100771.31;;;22.02;68.53
63399;BME280;49533;-34.520;150.798;2023-03-03T12:44:14;100775.28;;;22.01;68.23
63399;BME280;49533;-34.520;150.798;2023-03-03T12:49:33;100765.38;;;22.00;68.30
63399;BME280;49533;-34.520;150.798;2023-03-03T12:52:17;100773.66;;;22.00;68.27
63399;BME280;49533;-34.520;150.798;2023-03-03T12:55:10;100762.19;;;21.98;68.15
63399;BME280;49533;-34.520;150.798;2023-03-03T12:58:02;100757.84;;;21.97;68.02
63399;BME280;49533;-34.520;150.798;2023-03-03T13:00:54;100754.28;;;21.97;68.04
63399;BME280;49533;-34.520;150.798;2023-03-03T13:03:39;100758.63;;;21.98;68.27
63399;BME280;49533;-34.520;150.798;2023-03-03T13:06:29;100750.31;;;21.98;68.55
63399;BME280;49533;-34.520;150.798;2023-03-03T13:09:18;100745.94;;;21.93;68.20
63399;BME280;49533;-34.520;150.798;2023-03-03T13:14:54;100737.25;;;21.95;68.14
63399;BME280;49533;-34.520;150.798;2023-03-03T13:17:41;100732.09;;;21.93;68.17
63399;BME280;49533;-34.520;150.798;2023-03-03T13:20:48;100731.31;;;21.92;68.21
63399;BME280;49533;-34.520;150.798;2023-03-03T13:23:39;100731.69;;;21.91;68.38
63399;BME280;49533;-34.520;150.798;2023-03-03T13:26:20;100727.31;;;21.90;68.27
63399;BME280;49533;-34.520;150.798;2023-03-03T13:28:58;100721.78;;;21.90;67.72